BLV weather

Scott AFB/Midamerica Airport
Belleville, Illinois, United States

Public forecast

Using degrees Fahrenheit for public forecast. Weather courtesy of forecast.io.

METAR (pilot weather report)

Retrieved 2019/04/23 22:56 UTC (33 minutes ago):

KBLV 232256Z AUTO 36005KT 10SM FEW050 BKN090 OVC140 18/12 A3000 RMK AO2 SLP160 T01830123 $

TAF (pilot weather forecast)

Forecast is more than 6 hours old.

Retrieved 2019/04/23 16:09 UTC (7 hours ago):

TAF TAF KBLV 231600Z 2316/2422 VRB06KT 9999 SCT020 BKN030 QNH2997INS BECMG 2408/2409 VRB06KT 9999 SCT008 BKN012 OVC020 QNH2994INS BECMG 2414/2415 12008KT 9999 BKN008 OVC012 QNH2985INS TX20/2321Z TN14/2411Z